Time;durP1;ratioP1;P1;durP2;ratioP2;P2;SDS_P1;SDS_P2;PMS_P1;PMS_P2;Temp;Humidity;BMP_temperature;BMP_pressure;BME280_temperature;BME280_humidity;BME280_pressure;Samples;Min_cycle;Max_cycle;Signal;HPM_P1;HPM_P2
2023/05/13 07:01:43;;;;;;;1.40;1.30;;;21.40;99.90;23.50;102059.00;;;;6187161;23;20250;-68
2023/05/13 07:04:29;;;;;;;1.58;1.48;;;20.80;99.90;23.30;102065.00;;;;6136697;23;20166;-68
2023/05/13 07:07:27;;;;;;;1.08;0.93;;;20.50;99.90;23.30;102052.00;;;;6162186;23;20155;-68
2023/05/13 07:10:18;;;;;;;1.48;1.40;;;21.00;99.90;24.20;102047.00;;;;6161650;23;20143;-68
2023/05/13 07:13:24;;;;;;;0.10;0.10;;;21.30;99.90;25.30;102036.00;;;;6121315;23;20179;-68
2023/05/13 07:16:06;;;;;;;0.45;0.45;;;21.90;99.90;25.80;102028.00;;;;6156555;23;20162;-68
2023/05/13 07:18:35;;;;;;;1.67;1.58;;;22.20;99.90;26.40;102011.00;;;;6161490;23;20189;-70
2023/05/13 07:21:06;;;;;;;0.32;0.32;;;22.50;99.90;25.60;102020.00;;;;6136365;23;20473;-70
2023/05/13 07:23:58;;;;;;;1.02;1.02;;;22.70;99.90;27.10;101999.00;;;;6161204;23;20143;-71
2023/05/13 07:27:07;;;;;;;0.68;0.68;;;23.50;99.90;26.40;102023.00;;;;6135063;23;20163;-67
2023/05/13 07:29:56;;;;;;;1.52;1.42;;;23.10;99.90;25.90;102035.00;;;;6160498;23;20237;-69
2023/05/13 07:32:57;;;;;;;0.47;0.47;;;22.90;99.90;24.70;102064.00;;;;6103560;23;20187;-68
2023/05/13 07:36:04;;;;;;;0.55;0.55;;;22.00;99.90;26.80;102017.00;;;;6153402;23;20258;-67
2023/05/13 07:38:58;;;;;;;3.40;1.25;;;22.40;99.90;27.50;102011.00;;;;6157659;23;20198;-68
2023/05/13 07:41:48;;;;;;;7.53;0.85;;;23.40;99.90;26.30;102006.00;;;;6066911;23;20250;-68
2023/05/13 07:44:23;;;;;;;0.17;0.17;;;23.90;99.90;27.40;102016.00;;;;6093621;23;20162;-68
2023/05/13 07:46:54;;;;;;;1.25;0.98;;;23.80;99.90;27.10;102018.00;;;;6160749;23;20178;-68
2023/05/13 07:49:36;;;;;;;0.32;0.32;;;23.80;99.90;26.80;101966.00;;;;6160659;23;20159;-68
2023/05/13 07:52:08;;;;;;;0.10;0.10;;;23.70;99.90;28.50;101980.00;;;;6159776;23;20217;-68
2023/05/13 07:55:06;;;;;;;0.10;0.10;;;24.40;99.90;29.00;101931.00;;;;6161503;23;20523;-68
2023/05/13 07:57:32;;;;;;;0.45;0.45;;;24.90;99.90;29.20;101996.00;;;;6164149;23;20136;-68
2023/05/13 08:00:14;;;;;;;0.90;0.90;;;25.40;99.90;28.00;102026.00;;;;6172034;23;20179;-66
2023/05/13 08:02:42;;;;;;;0.10;0.10;;;25.70;99.90;27.20;102039.00;;;;6129664;23;20494;-66
2023/05/13 08:05:09;;;;;;;0.25;0.25;;;24.40;99.90;25.80;102083.00;;;;6131154;23;20194;-66
2023/05/13 08:07:38;;;;;;;2.85;2.60;;;23.20;99.90;25.90;102011.00;;;;6106710;23;20588;-71
2023/05/13 08:10:13;;;;;;;0.20;0.20;;;22.80;99.90;27.50;102053.00;;;;6131028;23;20234;-66
2023/05/13 08:12:39;;;;;;;1.88;0.32;;;23.60;99.90;27.20;102055.00;;;;6130794;23;20487;-66
2023/05/13 08:15:32;;;;;;;1.25;1.15;;;23.90;99.90;25.40;102092.00;;;;6130859;23;20155;-66
2023/05/13 08:17:58;;;;;;;0.10;0.10;;;23.50;99.90;26.30;102092.00;;;;6130935;23;20246;-69
2023/05/13 08:20:55;;;;;;;0.38;0.38;;;23.20;99.90;28.90;102055.00;;;;6157107;23;20179;-66
2023/05/13 08:23:33;;;;;;;1.00;1.00;;;24.20;99.90;29.70;102015.00;;;;6109606;23;20151;-67
2023/05/13 08:26:20;;;;;;;1.45;0.85;;;25.20;99.90;27.90;101993.00;;;;6105693;23;20474;-66
2023/05/13 08:28:53;;;;;;;1.98;0.98;;;25.00;99.90;26.00;102092.00;;;;6108169;23;20178;-66
2023/05/13 08:31:46;;;;;;;3.10;2.85;;;23.90;99.90;25.40;102104.00;;;;6157019;23;20144;-66
2023/05/13 08:34:36;;;;;;;1.20;1.15;;;23.20;99.90;25.10;102111.00;;;;6129662;23;20230;-66
2023/05/13 08:37:02;;;;;;;1.08;0.93;;;22.80;99.90;23.70;102141.00;;;;6130849;23;20140;-68
2023/05/13 08:39:40;;;;;;;1.52;1.42;;;22.00;99.90;26.40;102096.00;;;;6130768;23;20198;-66
2023/05/13 08:42:09;;;;;;;1.58;0.82;;;22.50;99.90;26.10;102101.00;;;;6129570;23;20190;-66
2023/05/13 08:44:50;;;;;;;5.57;3.20;;;23.10;99.90;26.70;102076.00;;;;6130898;23;20468;-67
2023/05/13 08:47:49;;;;;;;1.65;1.55;;;23.50;99.90;27.60;102083.00;;;;6131125;23;20159;-69
2023/05/13 08:50:38;;;;;;;2.78;0.73;;;23.40;99.90;26.40;102081.00;;;;6131046;23;20562;-67
2023/05/13 08:53:07;;;;;;;1.05;0.98;;;24.00;99.90;28.10;102072.00;;;;6156583;23;20168;-64
2023/05/13 08:55:48;;;;;;;1.33;1.33;;;24.20;99.90;28.40;102065.00;;;;6130916;23;20143;-65
2023/05/13 08:58:43;;;;;;;3.80;3.47;;;24.60;99.90;26.90;102069.00;;;;6132090;23;20187;-71
2023/05/13 09:01:39;;;;;;;0.73;0.73;;;24.00;99.90;26.40;102101.00;;;;6120159;23;20175;-69
2023/05/13 09:04:07;;;;;;;5.78;3.15;;;23.40;99.90;26.20;102097.00;;;;6130753;23;20159;-65
2023/05/13 09:06:39;;;;;;;2.30;2.20;;;23.30;99.90;25.50;102080.00;;;;6130835;23;20471;-65
2023/05/13 09:09:08;;;;;;;2.05;1.85;;;22.50;99.90;26.40;102099.00;;;;6130613;23;20198;-66
2023/05/13 09:11:39;;;;;;;1.90;1.80;;;23.10;99.90;25.30;102100.00;;;;6130342;23;20182;-68
2023/05/13 09:14:07;;;;;;;1.25;1.25;;;23.00;99.90;26.70;102087.00;;;;6130291;23;20152;-68
2023/05/13 09:16:55;;;;;;;2.78;2.58;;;23.10;99.90;26.70;102068.00;;;;6129692;23;20585;-69
2023/05/13 09:19:24;;;;;;;2.35;2.15;;;23.80;99.90;26.80;102073.00;;;;6105977;23;20491;-68
2023/05/13 09:22:01;;;;;;;2.97;2.78;;;24.20;99.90;25.70;102077.00;;;;6130174;23;20144;-66
2023/05/13 09:24:37;;;;;;;2.08;1.58;;;23.90;99.90;26.00;102037.00;;;;6130348;23;20592;-65
2023/05/13 09:27:04;;;;;;;1.75;1.65;;;23.10;99.90;26.30;102093.00;;;;6130592;23;20136;-66
2023/05/13 09:30:03;;;;;;;1.17;1.10;;;22.90;99.90;26.20;102080.00;;;;6129660;23;20218;-66
2023/05/13 09:33:15;;;;;;;4.80;1.67;;;23.10;99.90;26.50;102080.00;;;;6129919;23;20195;-65
2023/05/13 09:36:11;;;;;;;0.52;0.52;;;23.80;99.90;27.20;102078.00;;;;6130133;23;20163;-65
2023/05/13 09:38:40;;;;;;;3.00;2.40;;;23.60;99.90;27.20;102077.00;;;;6129076;23;20187;-66
2023/05/13 09:41:29;;;;;;;0.63;0.63;;;23.80;99.90;27.40;102064.00;;;;6129870;23;20239;-66
2023/05/13 09:44:23;;;;;;;1.50;1.40;;;24.00;99.90;28.80;102050.00;;;;6085224;23;20187;-68
2023/05/13 09:47:11;;;;;;;1.35;1.05;;;24.80;99.90;27.90;102053.00;;;;6133947;23;20550;-66
2023/05/13 09:49:44;;;;;;;1.05;1.00;;;24.80;99.90;27.30;102065.00;;;;6128980;23;20227;-65
2023/05/13 09:52:45;;;;;;;1.88;1.52;;;24.40;99.90;27.50;102058.00;;;;6129878;23;20168;-66
2023/05/13 09:55:11;;;;;;;0.98;0.73;;;24.20;99.90;27.80;102065.00;;;;6156159;23;20154;-65
2023/05/13 09:58:15;;;;;;;2.63;1.23;;;24.40;99.90;29.10;102036.00;;;;6130075;23;20234;-65
2023/05/13 10:01:20;;;;;;;1.10;1.05;;;25.10;99.90;27.60;102055.00;;;;6129822;23;20164;-66
2023/05/13 10:04:07;;;;;;;0.88;0.88;;;25.10;99.90;28.10;102053.00;;;;6155428;23;20246;-65
2023/05/13 10:06:50;;;;;;;1.30;1.20;;;24.60;99.90;29.00;102035.00;;;;6154876;23;20156;-66
2023/05/13 10:09:46;;;;;;;2.55;2.35;;;25.20;99.90;27.90;102047.00;;;;6130874;23;20263;-65
2023/05/13 10:12:25;;;;;;;0.77;0.77;;;25.00;99.90;28.30;102042.00;;;;6109093;23;20171;-66
2023/05/13 10:15:04;;;;;;;3.47;1.95;;;24.80;99.90;28.80;101969.00;;;;6106812;23;20160;-71
2023/05/13 10:17:44;;;;;;;1.52;1.42;;;25.20;99.90;27.00;102060.00;;;;6106169;23;20607;-66
2023/05/13 10:20:33;;;;;;;1.50;1.40;;;24.40;99.90;28.40;102045.00;;;;6131068;23;20480;-66
2023/05/13 10:33:45;;;;;;;0.63;0.45;;;24.00;99.90;27.60;102079.00;;;;5069437;28;20559;-66
2023/05/13 10:36:50;;;;;;;2.03;1.60;;;24.10;99.90;27.70;102047.00;;;;5048936;28;20205;-66
2023/05/13 10:39:43;;;;;;;0.57;0.57;;;24.60;99.90;29.50;102021.00;;;;5050124;28;20283;-66
2023/05/13 10:42:51;;;;;;;0.98;0.75;;;25.40;99.90;30.30;101993.00;;;;5042791;28;20194;-65
2023/05/13 10:45:36;;;;;;;2.40;2.22;;;26.40;99.90;29.60;101981.00;;;;5047752;28;20197;-66
2023/05/13 10:48:12;;;;;;;1.23;1.10;;;26.50;99.90;28.20;102018.00;;;;5038977;28;20185;-66
2023/05/13 10:54:39;;;;;;;7.03;1.90;;;25.70;99.90;29.10;102007.00;;;;5058684;28;20198;-66
2023/05/13 10:57:29;;;;;;;1.55;1.45;;;25.40;99.90;28.60;102000.00;;;;5058733;28;20198;-67
2023/05/13 11:00:30;;;;;;;3.80;3.47;;;25.70;99.90;28.30;102011.00;;;;5033049;28;20202;-67
2023/05/13 11:03:36;;;;;;;2.90;2.63;;;25.50;99.90;28.20;102011.00;;;;5049660;28;20190;-67
2023/05/13 11:06:20;;;;;;;1.55;1.15;;;25.40;99.90;28.60;102024.00;;;;5046474;28;20179;-67
2023/05/13 11:09:10;;;;;;;4.72;2.70;;;25.10;99.90;27.70;102027.00;;;;5042898;28;20185;-67
2023/05/13 11:11:40;;;;;;;6.75;1.88;;;24.80;99.90;27.50;102033.00;;;;5041253;28;20219;-68
2023/05/13 11:14:39;;;;;;;2.40;1.98;;;24.40;99.90;28.80;101960.00;;;;5064547;28;20535;-67
2023/05/13 11:17:25;;;;;;;2.40;2.20;;;25.10;99.90;27.20;102043.00;;;;5045344;28;20209;-67
2023/05/13 11:20:29;;;;;;;2.25;2.05;;;24.80;99.90;26.70;102050.00;;;;5048421;28;20663;-67
2023/05/13 11:23:38;;;;;;;2.35;2.15;;;24.40;99.90;28.20;101988.00;;;;5048067;28;20189;-67
2023/05/13 11:26:49;;;;;;;2.50;2.10;;;24.90;99.90;27.40;102048.00;;;;5047070;28;20195;-67
2023/05/13 11:29:49;;;;;;;9.45;3.63;;;24.70;99.90;26.70;102057.00;;;;5070762;28;20616;-67
2023/05/13 11:33:11;;;;;;;1.45;1.40;;;24.10;99.90;28.40;102031.00;;;;5040150;28;20314;-68
2023/05/13 11:36:03;;;;;;;2.53;1.70;;;25.00;99.90;27.70;102030.00;;;;5040593;28;20190;-67
2023/05/13 11:38:40;;;;;;;0.22;0.22;;;25.20;99.90;30.00;101968.00;;;;5046605;28;20245;-67
2023/05/13 11:41:16;;;;;;;1.23;1.13;;;25.90;99.90;28.40;102036.00;;;;5031319;28;20178;-68
2023/05/13 11:43:48;;;;;;;2.33;2.13;;;25.40;99.90;29.10;102017.00;;;;5036934;28;20668;-67
2023/05/13 11:46:30;;;;;;;0.40;0.40;;;25.70;99.90;28.40;101991.00;;;;5050036;28;20191;-67
2023/05/13 11:49:34;;;;;;;2.33;1.48;;;25.40;99.90;27.50;102055.00;;;;5028269;28;20187;-68
2023/05/13 11:52:12;;;;;;;3.70;3.00;;;24.50;99.90;27.70;102000.00;;;;5024740;28;20305;-67
2023/05/13 11:54:48;;;;;;;2.13;1.42;;;24.50;99.90;27.10;102047.00;;;;5033070;28;20223;-67
2023/05/13 11:57:31;;;;;;;6.00;3.58;;;24.30;99.90;28.00;102048.00;;;;5034055;28;20182;-67
2023/05/13 12:00:38;;;;;;;0.55;0.55;;;24.40;99.90;28.20;102045.00;;;;5034339;28;20190;-67
2023/05/13 12:03:11;;;;;;;3.33;3.13;;;24.20;99.90;27.50;102057.00;;;;5033032;28;20252;-67
2023/05/13 12:05:38;;;;;;;3.92;3.20;;;23.90;99.90;26.40;102049.00;;;;5033674;28;20217;-67
2023/05/13 12:08:26;;;;;;;4.75;4.07;;;23.70;99.90;25.90;102004.00;;;;5035095;28;20178;-66
2023/05/13 12:10:54;;;;;;;4.25;2.28;;;23.20;99.90;27.20;102051.00;;;;5033644;28;20595;-67
2023/05/13 12:13:24;;;;;;;2.92;2.35;;;23.40;99.90;27.70;102048.00;;;;5033634;28;20191;-67
2023/05/13 12:15:50;;;;;;;6.82;1.90;;;24.00;99.90;27.90;102036.00;;;;5032837;28;20641;-67
2023/05/13 12:18:44;;;;;;;4.13;3.72;;;24.30;99.90;26.40;102059.00;;;;5034215;28;20175;-67
2023/05/13 12:21:50;;;;;;;3.45;2.90;;;24.10;99.90;27.30;101986.00;;;;5010053;28;20182;-68
2023/05/13 12:24:20;;;;;;;3.00;2.45;;;24.00;99.90;26.00;102062.00;;;;5024834;28;20179;-67
2023/05/13 12:26:47;;;;;;;6.07;3.15;;;23.40;99.90;26.20;102059.00;;;;5050465;28;20182;-67
2023/05/13 12:29:13;;;;;;;0.57;0.57;;;23.30;99.90;27.80;102044.00;;;;5033157;28;20183;-67
2023/05/13 12:32:10;;;;;;;5.00;2.92;;;23.60;99.90;27.90;102034.00;;;;5033387;28;20218;-67
2023/05/13 12:34:45;;;;;;;1.73;1.50;;;24.00;99.90;27.60;102035.00;;;;5033458;28;20209;-67
2023/05/13 12:37:14;;;;;;;3.55;2.88;;;23.90;99.90;27.40;102033.00;;;;5033588;28;20224;-67
2023/05/13 12:39:46;;;;;;;1.92;1.13;;;23.90;99.90;27.50;102023.00;;;;5034740;28;20175;-67
2023/05/13 12:42:18;;;;;;;4.95;3.08;;;23.90;99.90;26.10;102044.00;;;;5033311;28;20183;-67
2023/05/13 12:44:45;;;;;;;0.90;0.90;;;23.60;99.90;27.00;102023.00;;;;5016701;28;20184;-73
2023/05/13 12:47:13;;;;;;;0.82;0.82;;;23.50;99.90;26.70;102032.00;;;;5059746;28;20197;-67
2023/05/13 12:49:57;;;;;;;5.68;4.70;;;23.40;99.90;26.10;102036.00;;;;5032918;28;20214;-66
2023/05/13 12:52:26;;;;;;;4.90;3.22;;;23.10;99.90;26.10;102004.00;;;;5033074;28;20210;-73
2023/05/13 12:55:11;;;;;;;0.50;0.50;;;22.90;99.90;25.80;101999.00;;;;5033293;28;20185;-67
2023/05/13 12:57:40;;;;;;;3.13;2.90;;;22.70;99.90;25.60;101924.00;;;;5029878;28;20199;-74
2023/05/13 13:00:12;;;;;;;1.13;1.10;;;22.50;99.90;27.30;101980.00;;;;5047807;28;20213;-65
2023/05/13 13:02:39;;;;;;;2.42;2.22;;;23.20;99.90;26.50;102011.00;;;;5033096;28;20195;-65
2023/05/13 13:05:06;;;;;;;3.55;3.22;;;23.30;99.90;26.40;101998.00;;;;5032960;28;20678;-65
2023/05/13 13:07:51;;;;;;;0.45;0.40;;;23.00;99.90;26.30;101952.00;;;;5034161;28;20181;-66
2023/05/13 13:10:16;;;;;;;0.88;0.88;;;23.10;99.90;27.00;101939.00;;;;5030046;28;20191;-66
2023/05/13 13:12:44;;;;;;;4.72;3.28;;;23.20;99.90;26.80;101996.00;;;;5058869;28;20260;-66
2023/05/13 13:15:10;;;;;;;6.93;2.42;;;23.50;99.90;26.90;101992.00;;;;5032146;28;20175;-67
2023/05/13 13:18:02;;;;;;;0.73;0.73;;;23.30;99.90;27.20;101994.00;;;;5031508;28;20189;-67
2023/05/13 13:20:30;;;;;;;3.05;2.33;;;23.40;99.90;26.60;101993.00;;;;5023430;28;20236;-67
2023/05/13 13:22:58;;;;;;;2.78;2.05;;;23.50;99.90;25.90;101973.00;;;;5032951;28;20193;-65
2023/05/13 13:25:25;;;;;;;10.38;5.78;;;22.90;99.90;25.50;101975.00;;;;5032778;28;20702;-65
2023/05/13 13:28:09;;;;;;;5.25;3.38;;;22.70;99.90;25.40;101954.00;;;;5032831;28;20560;-65
2023/05/13 13:30:36;;;;;;;1.08;0.55;;;22.50;99.90;25.90;101960.00;;;;5027949;28;20179;-66
2023/05/13 13:33:21;;;;;;;0.60;0.60;;;22.60;99.90;27.10;101954.00;;;;5033215;28;20260;-66
2023/05/13 13:36:05;;;;;;;9.07;4.13;;;23.10;99.90;26.50;101956.00;;;;5015466;28;20275;-66
2023/05/13 13:38:43;;;;;;;0.50;0.50;;;23.10;99.90;27.30;101966.00;;;;5020429;28;20195;-66
2023/05/13 13:41:08;;;;;;;2.92;2.65;;;23.30;99.90;25.00;101958.00;;;;5032188;28;20186;-66
2023/05/13 13:43:34;;;;;;;3.90;3.60;;;22.80;99.90;26.40;101963.00;;;;5032534;28;20565;-65
2023/05/13 13:46:00;;;;;;;3.20;2.25;;;22.90;99.90;26.10;101947.00;;;;5032185;28;20179;-66
2023/05/13 13:48:26;;;;;;;6.65;4.68;;;22.80;99.90;25.20;101954.00;;;;5031975;28;20183;-66
2023/05/13 13:50:53;;;;;;;1.65;1.55;;;22.70;99.90;26.40;101948.00;;;;5033724;28;20189;-65
2023/05/13 13:53:23;;;;;;;3.22;2.97;;;22.80;99.90;25.30;101939.00;;;;5030999;28;20326;-66
2023/05/13 13:56:27;;;;;;;0.63;0.63;;;22.80;99.90;26.10;101926.00;;;;5032313;28;20217;-65
2023/05/13 13:58:56;;;;;;;4.72;3.00;;;22.60;99.90;25.10;101915.00;;;;5005024;28;20183;-65
2023/05/13 14:01:22;;;;;;;8.45;3.80;;;22.40;99.90;25.10;101913.00;;;;5027485;28;20196;-66
2023/05/13 14:03:52;;;;;;;0.38;0.38;;;22.30;99.90;26.00;101889.00;;;;5014269;28;20182;-67
2023/05/13 14:06:21;;;;;;;1.92;1.83;;;22.50;99.90;25.50;101914.00;;;;5052474;28;20553;-66
2023/05/13 14:08:49;;;;;;;3.08;2.70;;;22.50;99.90;25.10;101908.00;;;;5030385;28;20542;-66
2023/05/13 14:11:15;;;;;;;1.65;0.85;;;22.40;99.90;26.00;101916.00;;;;5032143;28;20187;-66
2023/05/13 14:14:24;;;;;;;2.80;2.53;;;22.60;99.90;26.40;101920.00;;;;5031375;28;20187;-66
2023/05/13 14:16:50;;;;;;;4.60;3.53;;;22.80;99.90;25.50;101930.00;;;;5029122;28;20255;-67
2023/05/13 14:19:19;;;;;;;0.60;0.60;;;22.70;99.90;26.40;101915.00;;;;5030642;28;20217;-70
2023/05/13 14:21:46;;;;;;;0.85;0.85;;;22.70;99.90;26.40;101927.00;;;;5031035;28;20240;-68
2023/05/13 14:24:12;;;;;;;0.20;0.20;;;22.90;99.90;26.70;101916.00;;;;5032986;28;20209;-71
2023/05/13 14:26:38;;;;;;;0.10;0.10;;;23.00;99.90;27.20;101916.00;;;;5031516;28;20183;-68
2023/05/13 14:29:04;;;;;;;0.40;0.40;;;23.20;99.90;27.40;101881.00;;;;5031918;28;20187;-67
2023/05/13 14:31:30;;;;;;;0.20;0.20;;;23.30;99.90;27.50;101943.00;;;;5032551;28;20209;-67
2023/05/13 14:33:57;;;;;;;0.20;0.20;;;23.60;99.90;26.90;101940.00;;;;5032559;28;20198;-67
2023/05/13 14:36:25;;;;;;;1.63;1.38;;;23.40;99.90;27.40;101940.00;;;;5031374;28;20187;-67
2023/05/13 14:39:09;;;;;;;0.30;0.30;;;23.60;99.90;27.10;101933.00;;;;5031401;28;20189;-68
2023/05/13 14:41:57;;;;;;;1.70;1.60;;;23.50;99.90;26.50;101945.00;;;;5013482;28;20282;-68
2023/05/13 14:44:46;;;;;;;2.10;1.90;;;23.20;99.90;26.40;101884.00;;;;5031750;28;20293;-67
2023/05/13 14:47:12;;;;;;;1.65;1.63;;;23.00;99.90;26.50;101930.00;;;;5040247;28;20312;-73
2023/05/13 14:49:46;;;;;;;3.03;1.83;;;23.00;99.90;26.10;101922.00;;;;5039838;28;20207;-68
2023/05/13 14:52:24;;;;;;;0.95;0.75;;;22.80;99.90;25.80;101916.00;;;;5040624;28;20216;-67
2023/05/13 14:54:56;;;;;;;2.05;1.95;;;22.70;99.90;25.60;101911.00;;;;5025222;28;20187;-68
2023/05/13 14:58:02;;;;;;;0.50;0.50;;;22.50;99.90;26.40;101849.00;;;;5039530;28;20209;-68
2023/05/13 15:00:32;;;;;;;1.50;1.40;;;22.60;99.90;25.70;101918.00;;;;5039127;28;20503;-68
2023/05/13 15:03:38;;;;;;;5.25;3.65;;;22.50;99.90;25.10;101910.00;;;;5040732;28;20189;-67
2023/05/13 15:06:15;;;;;;;2.83;2.55;;;22.30;99.90;25.00;101855.00;;;;5039511;28;20272;-68
2023/05/13 15:09:14;;;;;;;3.03;1.70;;;22.00;99.90;24.70;101865.00;;;;5039067;28;20310;-67
2023/05/13 15:12:08;;;;;;;1.25;1.15;;;21.60;99.90;24.20;101875.00;;;;5034698;28;20543;-68
2023/05/13 15:14:54;;;;;;;3.15;1.35;;;21.70;99.90;24.40;101860.00;;;;5036027;28;20213;-67
2023/05/13 15:17:23;;;;;;;1.70;1.60;;;21.60;99.90;25.50;101869.00;;;;5041855;28;20186;-67
2023/05/13 15:20:27;;;;;;;1.58;1.48;;;21.90;99.90;25.60;101895.00;;;;5044198;28;20233;-68
2023/05/13 15:23:13;;;;;;;3.78;2.60;;;22.20;99.90;23.40;101870.00;;;;5043748;28;20243;-68
2023/05/13 15:25:42;;;;;;;3.75;1.55;;;21.50;99.90;23.00;101859.00;;;;5044448;28;20274;-67
2023/05/13 15:28:07;;;;;;;8.70;3.33;;;21.00;99.90;23.10;101870.00;;;;5026851;28;20182;-67
2023/05/13 15:31:01;;;;;;;1.05;1.00;;;20.90;99.90;23.30;101858.00;;;;5044647;28;20189;-67
2023/05/13 15:33:34;;;;;;;0.20;0.20;;;20.90;99.90;23.60;101851.00;;;;5027019;28;20214;-67
2023/05/13 15:36:45;;;;;;;0.15;0.15;;;20.70;99.90;23.80;101856.00;;;;5026759;28;20186;-67
2023/05/13 15:39:34;;;;;;;0.80;0.80;;;20.70;99.90;22.60;101861.00;;;;5043891;28;20543;-67
2023/05/13 15:42:16;;;;;;;3.97;2.80;;;20.30;99.90;22.20;101881.00;;;;5025864;28;20261;-68
2023/05/13 15:45:06;;;;;;;10.00;4.65;;;19.90;99.90;21.30;101863.00;;;;5033577;28;20649;-70
2023/05/13 15:47:55;;;;;;;1.52;1.42;;;19.50;99.90;22.00;101881.00;;;;5010459;28;20188;-67
2023/05/13 15:50:51;;;;;;;1.35;1.10;;;19.60;99.90;20.60;101898.00;;;;5032823;28;20202;-68
2023/05/13 15:53:58;;;;;;;0.60;0.60;;;18.90;99.90;20.50;101856.00;;;;5033372;28;20206;-66
2023/05/13 15:56:33;;;;;;;0.45;0.45;;;18.40;99.90;22.10;101875.00;;;;5038963;28;20220;-74
2023/05/13 15:59:06;;;;;;;1.90;0.80;;;18.60;99.90;21.00;101834.00;;;;5034202;28;20197;-68
2023/05/13 16:02:02;;;;;;;0.10;0.10;;;18.40;99.90;22.30;101815.00;;;;5032618;28;20193;-72
2023/05/13 16:04:27;;;;;;;1.23;1.23;;;18.60;99.90;22.40;101765.00;;;;5038890;28;20203;-71
2023/05/13 16:07:26;;;;;;;3.23;2.57;;;19.00;99.90;22.50;101797.00;;;;5027092;28;20196;-72
2023/05/13 16:10:36;;;;;;;0.43;0.43;;;19.10;99.90;22.10;101782.00;;;;5041452;28;20280;-72
2023/05/13 16:13:48;;;;;;;0.27;0.27;;;19.10;99.90;22.00;101768.00;;;;5041056;28;21062;-71
2023/05/13 16:16:42;;;;;;;1.33;1.23;;;19.00;99.90;22.30;101791.00;;;;5057850;28;20201;-71
2023/05/13 16:19:49;;;;;;;2.67;2.47;;;19.00;99.90;21.90;101792.00;;;;5041429;28;20192;-71
2023/05/13 16:23:27;;;;;;;3.40;3.20;;;19.00;99.90;21.50;101791.00;;;;5042262;28;20199;-71
2023/05/13 16:26:22;;;;;;;1.70;1.60;;;18.80;99.90;21.90;101799.00;;;;5032703;28;20225;-71
2023/05/13 16:29:18;;;;;;;4.45;4.15;;;19.00;99.90;21.10;101787.00;;;;5041320;28;20592;-71
2023/05/13 16:32:36;;;;;;;2.20;2.10;;;18.80;99.90;22.20;101779.00;;;;5039284;28;20233;-71
2023/05/13 16:35:19;;;;;;;4.93;3.77;;;18.90;99.90;22.10;101719.00;;;;5042178;28;20667;-71
2023/05/13 16:38:29;;;;;;;7.80;3.70;;;19.00;99.90;21.60;101797.00;;;;5037697;28;20186;-71
2023/05/13 16:41:56;;;;;;;0.20;0.20;;;19.00;99.90;22.40;101793.00;;;;5014356;28;20276;-70
2023/05/13 16:45:38;;;;;;;1.80;1.67;;;18.90;99.90;22.00;101789.00;;;;5032299;28;20198;-70
2023/05/13 16:49:07;;;;;;;3.60;2.23;;;18.80;99.90;22.10;101790.00;;;;5032756;28;20198;-71
2023/05/13 16:52:05;;;;;;;1.07;1.07;;;18.80;99.90;21.90;101783.00;;;;5030665;28;20233;-71
2023/05/13 16:55:11;;;;;;;5.90;5.37;;;18.80;99.90;22.00;101783.00;;;;5031934;28;20190;-71
2023/05/13 16:57:58;;;;;;;0.60;0.60;;;18.90;99.90;22.70;101787.00;;;;5031867;28;20219;-70
2023/05/13 17:01:11;;;;;;;1.37;1.33;;;19.10;99.90;21.90;101791.00;;;;5015705;28;20205;-70
2023/05/13 17:03:37;;;;;;;10.00;3.70;;;19.00;99.90;22.20;101797.00;;;;5032625;28;20213;-70
2023/05/13 17:06:23;;;;;;;0.33;0.33;;;19.10;99.90;22.70;101809.00;;;;5033216;28;20220;-70
2023/05/13 17:09:15;;;;;;;3.47;3.23;;;19.20;99.90;21.80;101797.00;;;;5033864;28;20192;-70
2023/05/13 17:11:58;;;;;;;38.00;2.73;;;18.90;99.90;22.20;101801.00;;;;5004273;28;20210;-70
2023/05/13 17:14:47;;;;;;;0.30;0.30;;;19.10;99.90;22.70;101811.00;;;;5012462;28;20186;-70
2023/05/13 17:17:33;;;;;;;3.53;3.27;;;19.20;99.90;22.20;101736.00;;;;5011230;28;20608;-70
2023/05/13 17:20:36;;;;;;;0.57;0.57;;;19.20;99.90;22.00;101808.00;;;;5011745;28;20282;-70
2023/05/13 17:23:29;;;;;;;5.10;4.60;;;19.10;99.90;22.00;101799.00;;;;5012916;28;20627;-70
2023/05/13 17:26:12;;;;;;;0.63;0.63;;;18.90;99.90;21.90;101794.00;;;;5000644;28;20211;-70
2023/05/13 17:28:59;;;;;;;0.73;0.73;;;18.70;99.90;22.50;101806.00;;;;5033083;28;20217;-70
2023/05/13 17:31:45;;;;;;;0.83;0.83;;;18.80;99.90;22.80;101809.00;;;;5032453;28;20243;-70
2023/05/13 17:34:38;;;;;;;1.23;1.00;;;19.00;99.90;22.00;101789.00;;;;5029669;28;20659;-70
2023/05/13 17:37:42;;;;;;;1.97;1.87;;;18.80;99.90;22.00;101797.00;;;;5043453;28;20228;-72
2023/05/13 17:40:45;;;;;;;0.20;0.20;;;18.70;99.90;21.90;101792.00;;;;5032425;28;20605;-70
2023/05/13 17:43:54;;;;;;;0.93;0.70;;;18.60;99.90;20.90;101782.00;;;;5031204;28;20202;-69
2023/05/13 17:46:40;;;;;;;1.33;1.23;;;18.30;99.90;20.80;101768.00;;;;5024981;28;20200;-70
2023/05/13 17:49:47;;;;;;;0.60;0.60;;;17.80;99.90;20.60;101779.00;;;;5025032;28;20620;-70
2023/05/13 17:52:18;;;;;;;3.57;3.27;;;17.80;99.90;21.20;101704.00;;;;5045526;28;20204;-70
2023/05/13 17:55:36;;;;;;;6.50;5.37;;;17.90;99.90;20.60;101777.00;;;;5032104;28;20647;-70
2023/05/13 17:58:22;;;;;;;7.10;2.37;;;17.80;99.90;20.00;101764.00;;;;5064293;28;20187;-69
2023/05/13 18:01:08;;;;;;;2.00;1.80;;;17.40;99.90;20.00;101771.00;;;;5033103;28;20217;-69
2023/05/13 18:04:22;;;;;;;0.57;0.57;;;17.40;99.90;21.00;101783.00;;;;5028145;28;20293;-69
2023/05/13 18:07:08;;;;;;;0.30;0.30;;;17.50;99.90;20.50;101779.00;;;;5026011;28;20580;-70
2023/05/13 18:10:14;;;;;;;0.77;0.73;;;17.60;99.90;20.80;101781.00;;;;5031287;28;20279;-69
2023/05/13 18:13:34;;;;;;;2.07;1.90;;;17.60;99.90;21.00;101726.00;;;;5055281;28;20686;-69
2023/05/13 18:16:35;;;;;;;4.57;1.33;;;17.80;99.90;20.50;101791.00;;;;5017466;28;20173;-70
2023/05/13 18:19:28;;;;;;;2.17;0.60;;;17.70;99.90;21.00;101743.00;;;;5011989;28;20217;-69
2023/05/13 18:22:33;;;;;;;0.80;0.80;;;17.60;99.90;20.30;101799.00;;;;5031244;28;20192;-70
2023/05/13 18:25:52;;;;;;;0.37;0.37;;;17.50;99.90;20.80;101751.00;;;;5056782;28;20183;-70
2023/05/13 18:28:48;;;;;;;5.50;2.70;;;17.50;99.90;20.20;101803.00;;;;5036489;28;20193;-70
2023/05/13 18:31:51;;;;;;;2.40;2.30;;;17.40;99.90;20.30;101810.00;;;;5042516;28;20210;-69
2023/05/13 18:35:01;;;;;;;5.47;2.73;;;17.30;99.90;20.20;101815.00;;;;5024945;28;20297;-70
2023/05/13 18:38:06;;;;;;;0.97;0.97;;;17.10;99.90;20.40;101830.00;;;;5025822;28;20191;-70
2023/05/13 18:41:15;;;;;;;2.20;2.00;;;17.20;99.90;19.20;101807.00;;;;5020057;28;20200;-70
2023/05/13 18:44:20;;;;;;;0.50;0.50;;;17.00;99.90;19.50;101807.00;;;;5000425;28;20197;-70
2023/05/13 18:47:22;;;;;;;2.93;1.67;;;16.70;99.90;19.80;101810.00;;;;5019999;28;20209;-70
2023/05/13 18:50:29;;;;;;;0.30;0.30;;;16.70;99.90;20.10;101811.00;;;;5030145;28;20196;-69
2023/05/13 18:53:32;;;;;;;0.20;0.20;;;16.70;99.90;20.30;101831.00;;;;5030830;28;20684;-69
2023/05/13 18:56:30;;;;;;;1.27;1.27;;;16.80;99.90;20.50;101827.00;;;;5035043;28;20279;-70
2023/05/13 18:59:21;;;;;;;2.97;1.90;;;16.90;99.90;19.30;101799.00;;;;5026220;28;20245;-70
2023/05/13 19:03:05;;;;;;;0.80;0.80;;;16.60;99.90;19.60;101823.00;;;;5034963;28;20224;-70
2023/05/13 19:05:42;;;;;;;0.20;0.20;;;16.50;99.90;19.70;101824.00;;;;4990175;28;20283;-70
2023/05/13 19:08:26;;;;;;;0.90;0.87;;;16.50;99.90;20.10;101825.00;;;;5010460;28;20273;-70
2023/05/13 19:11:47;;;;;;;2.60;1.63;;;16.50;99.90;19.90;101755.00;;;;5033468;28;20691;-70
2023/05/13 19:14:48;;;;;;;0.40;0.40;;;16.40;99.90;19.60;101834.00;;;;5030948;28;20283;-70
2023/05/13 19:18:09;;;;;;;1.40;1.33;;;16.40;99.90;19.80;101833.00;;;;5038348;28;20205;-70
2023/05/13 19:21:35;;;;;;;1.23;1.13;;;16.40;99.90;19.00;101821.00;;;;5030876;28;20194;-70
2023/05/13 19:24:41;;;;;;;1.13;0.97;;;16.10;99.90;19.30;101834.00;;;;5045687;28;20185;-70
2023/05/13 19:27:51;;;;;;;1.30;1.20;;;16.00;99.90;19.70;101835.00;;;;5015851;28;20601;-70